Time;durP1;ratioP1;P1;durP2;ratioP2;P2;SDS_P1;SDS_P2;PMS_P1;PMS_P2;Temp;Humidity;BMP_temperature;BMP_pressure;BME280_temperature;BME280_humidity;BME280_pressure;Samples;Min_cycle;Max_cycle;Signal;HPM_P1;HPM_P2
2022/11/13 00:00:17;;;;;;;84.38;61.33;;;;;;;5.62;100.00;102595.03;5033644;28;20108;-48
2022/11/13 00:02:43;;;;;;;86.15;59.75;;;;;;;5.53;100.00;102587.91;5033310;28;20034;-50
2022/11/13 00:05:08;;;;;;;85.95;59.92;;;;;;;5.64;100.00;102595.91;5033362;28;20037;-49
2022/11/13 00:07:33;;;;;;;84.60;59.95;;;;;;;5.61;100.00;102596.75;5033710;28;20065;-48
2022/11/13 00:09:59;;;;;;;76.47;56.15;;;;;;;5.66;100.00;102591.63;5015662;28;20479;-49
2022/11/13 00:12:24;;;;;;;81.70;57.03;;;;;;;5.46;100.00;102565.16;5033534;28;20568;-52
2022/11/13 00:14:49;;;;;;;80.28;58.33;;;;;;;5.61;100.00;102594.13;5033204;28;20063;-51
2022/11/13 00:17:15;;;;;;;74.88;55.45;;;;;;;5.58;100.00;102587.97;5033155;28;20057;-51
2022/11/13 00:19:40;;;;;;;79.43;55.05;;;;;;;5.47;100.00;102566.91;5033483;28;20488;-53
2022/11/13 00:22:05;;;;;;;83.03;56.25;;;;;;;5.47;100.00;102579.97;5015088;28;20045;-52
2022/11/13 00:24:30;;;;;;;79.55;55.63;;;;;;;5.40;100.00;102579.88;5032895;28;20114;-51
2022/11/13 00:26:56;;;;;;;77.40;54.92;;;;;;;5.03;100.00;102516.59;5033027;28;20530;-51
2022/11/13 00:29:21;;;;;;;80.63;56.17;;;;;;;4.94;100.00;102508.59;5033111;28;20046;-51
2022/11/13 00:31:46;;;;;;;79.10;54.05;;;;;;;5.34;100.00;102579.78;5015324;28;20045;-54
2022/11/13 00:34:12;;;;;;;84.60;57.28;;;;;;;5.33;100.00;102578.00;5015216;28;20030;-49
2022/11/13 00:36:37;;;;;;;75.97;54.05;;;;;;;5.31;100.00;102577.09;5032708;28;20039;-50
2022/11/13 00:39:02;;;;;;;75.82;53.00;;;;;;;5.29;100.00;102574.44;5032620;28;20131;-49
2022/11/13 00:41:28;;;;;;;72.78;50.78;;;;;;;5.23;100.00;102545.63;5032562;28;20064;-53
2022/11/13 00:43:53;;;;;;;80.32;52.63;;;;;;;4.99;100.00;102504.34;5014962;28;20053;-49
2022/11/13 00:46:18;;;;;;;83.18;55.28;;;;;;;4.74;100.00;102456.94;5032818;28;20033;-48
2022/11/13 00:48:44;;;;;;;78.20;52.92;;;;;;;5.24;100.00;102543.91;5014929;28;20523;-50
2022/11/13 00:51:09;;;;;;;75.43;50.72;;;;;;;5.25;100.00;102557.00;5014975;28;20044;-48
2022/11/13 00:53:35;;;;;;;82.35;53.10;;;;;;;5.24;100.00;102536.94;5014711;28;20069;-48
2022/11/13 00:56:00;;;;;;;74.15;51.58;;;;;;;5.24;100.00;102536.06;5032633;28;20033;-51
2022/11/13 00:58:25;;;;;;;71.97;49.17;;;;;;;5.24;100.00;102542.19;5032560;28;20037;-50
2022/11/13 01:00:51;;;;;;;76.97;51.45;;;;;;;4.82;100.00;102464.03;5014783;28;20041;-50
2022/11/13 01:03:17;;;;;;;72.63;46.55;;;;;;;5.21;100.00;102528.19;5032515;28;20037;-51
2022/11/13 01:05:44;;;;;;;66.85;46.90;;;;;;;5.23;100.00;102532.56;5032310;28;20060;-50
2022/11/13 01:08:10;;;;;;;67.80;46.17;;;;;;;5.00;100.00;102485.22;5014984;28;20086;-49
2022/11/13 01:10:43;;;;;;;66.75;46.75;;;;;;;5.06;100.00;102497.50;5014802;28;20037;-49
2022/11/13 01:13:08;;;;;;;64.03;43.58;;;;;;;5.33;100.00;102541.44;5032209;28;20435;-49
2022/11/13 01:15:33;;;;;;;67.47;45.20;;;;;;;5.29;100.00;102543.13;4998242;28;20034;-51
2022/11/13 01:17:59;;;;;;;59.45;42.90;;;;;;;5.24;100.00;102517.78;5032307;28;20034;-50
2022/11/13 01:20:24;;;;;;;65.00;44.28;;;;;;;4.83;100.00;102460.59;5032257;28;20086;-49
2022/11/13 01:22:50;;;;;;;59.05;42.95;;;;;;;5.27;100.00;102531.78;5032374;28;20041;-51
2022/11/13 01:25:16;;;;;;;66.40;44.38;;;;;;;4.88;100.00;102471.97;5032277;28;20063;-48
2022/11/13 01:27:41;;;;;;;63.83;44.08;;;;;;;5.21;100.00;102526.47;5032131;28;20041;-50
2022/11/13 01:30:07;;;;;;;64.57;44.20;;;;;;;5.21;100.00;102522.97;5031895;28;20501;-51
2022/11/13 01:32:33;;;;;;;65.07;42.65;;;;;;;5.19;100.00;102527.28;5014149;28;20033;-49
2022/11/13 01:34:58;;;;;;;59.08;42.08;;;;;;;5.09;100.00;102507.97;5032199;28;20377;-50
2022/11/13 01:37:23;;;;;;;61.60;43.50;;;;;;;4.76;100.00;102461.31;5014372;28;20536;-48
2022/11/13 01:39:49;;;;;;;58.85;41.78;;;;;;;5.04;100.00;102507.91;5031985;28;20128;-50
2022/11/13 01:42:14;;;;;;;65.47;44.50;;;;;;;4.75;100.00;102454.38;5014445;28;20045;-48
2022/11/13 01:44:54;;;;;;;60.33;43.45;;;;;;;4.67;100.00;102450.72;5031980;28;20084;-52
2022/11/13 01:47:20;;;;;;;60.13;43.00;;;;;;;5.09;100.00;102532.34;5031873;28;20109;-50
2022/11/13 01:49:46;;;;;;;66.72;44.72;;;;;;;5.00;100.00;102523.47;5013990;28;20037;-49
2022/11/13 01:52:15;;;;;;;63.78;44.63;;;;;;;5.02;100.00;102522.66;5017432;28;20120;-51
2022/11/13 01:54:44;;;;;;;63.97;43.90;;;;;;;4.93;100.00;102512.06;5036093;28;20034;-50
2022/11/13 01:57:09;;;;;;;59.67;43.47;;;;;;;4.60;100.00;102458.44;5018292;28;20037;-49
2022/11/13 01:59:38;;;;;;;62.55;43.08;;;;;;;4.94;100.00;102521.66;5018102;28;20527;-48
2022/11/13 02:02:04;;;;;;;61.97;42.83;;;;;;;4.50;100.00;102440.00;5035800;28;20033;-51
2022/11/13 02:04:30;;;;;;;58.97;41.17;;;;;;;4.50;100.00;102441.72;5035818;28;20038;-52
2022/11/13 02:06:58;;;;;;;62.55;42.78;;;;;;;4.90;100.00;102517.22;5018118;28;20029;-51
2022/11/13 02:09:26;;;;;;;68.25;42.83;;;;;;;4.57;100.00;102455.75;5017760;28;20531;-50
2022/11/13 02:11:52;;;;;;;62.25;43.60;;;;;;;4.46;100.00;102439.94;5017903;28;20030;-51
2022/11/13 02:14:18;;;;;;;62.88;41.88;;;;;;;4.84;100.00;102517.16;5017770;28;20382;-51
2022/11/13 02:16:46;;;;;;;60.85;41.58;;;;;;;4.30;100.00;102409.22;5001694;28;20405;-48
2022/11/13 02:19:16;;;;;;;59.03;38.65;;;;;;;4.38;100.00;102431.06;5017950;28;20156;-50
2022/11/13 02:21:58;;;;;;;55.08;41.03;;;;;;;4.36;100.00;102419.75;5017687;28;20037;-48
2022/11/13 02:24:27;;;;;;;53.08;39.05;;;;;;;4.41;100.00;102425.91;5017699;28;20492;-47
2022/11/13 02:26:53;;;;;;;51.97;38.20;;;;;;;4.83;100.00;102509.28;5017541;28;20397;-48
2022/11/13 02:29:18;;;;;;;59.67;39.72;;;;;;;4.41;100.00;102438.97;5001098;28;20044;-49
2022/11/13 02:31:44;;;;;;;59.28;39.25;;;;;;;4.37;100.00;102432.84;5034955;28;20038;-52
2022/11/13 02:34:09;;;;;;;62.60;41.42;;;;;;;4.74;100.00;102502.16;5035137;28;20034;-51
2022/11/13 02:36:34;;;;;;;58.72;37.53;;;;;;;4.78;100.00;102497.88;5035104;28;20452;-50
2022/11/13 02:39:03;;;;;;;58.55;39.25;;;;;;;4.74;100.00;102498.66;5001198;28;20030;-51
2022/11/13 02:41:29;;;;;;;54.17;37.60;;;;;;;4.67;100.00;102475.97;5017382;28;20370;-49
2022/11/13 02:43:54;;;;;;;61.90;40.25;;;;;;;4.78;100.00;102498.78;5034726;28;20111;-49
2022/11/13 02:46:19;;;;;;;60.95;39.03;;;;;;;4.37;100.00;102422.41;5035089;28;20034;-51
2022/11/13 02:48:44;;;;;;;53.85;35.80;;;;;;;4.78;100.00;102471.78;5034836;28;20084;-50
2022/11/13 02:51:10;;;;;;;52.97;36.10;;;;;;;4.74;100.00;102476.06;5035089;28;20045;-51
2022/11/13 02:53:35;;;;;;;58.88;38.08;;;;;;;4.76;100.00;102483.94;5017041;28;20048;-52
2022/11/13 02:56:00;;;;;;;54.00;36.60;;;;;;;4.75;100.00;102477.84;5034752;28;20039;-51
2022/11/13 02:58:26;;;;;;;52.40;36.83;;;;;;;4.75;100.00;102485.66;5034748;28;20053;-52
2022/11/13 03:00:51;;;;;;;52.42;35.95;;;;;;;4.39;100.00;102419.81;5034736;28;20033;-52
2022/11/13 03:03:16;;;;;;;51.88;36.13;;;;;;;4.73;100.00;102466.47;5033755;28;20388;-50
2022/11/13 03:05:41;;;;;;;48.92;35.03;;;;;;;4.68;100.00;102462.94;5034198;28;20083;-52
2022/11/13 03:08:07;;;;;;;49.38;33.30;;;;;;;4.68;100.00;102447.28;5016892;28;20106;-48
2022/11/13 03:10:32;;;;;;;51.08;33.03;;;;;;;4.28;100.00;102374.44;5034531;28;20034;-54
2022/11/13 03:12:58;;;;;;;50.25;34.92;;;;;;;4.40;100.00;102395.50;5000720;28;20068;-50
2022/11/13 03:15:23;;;;;;;48.90;34.35;;;;;;;4.45;100.00;102405.16;5034704;28;20033;-49
2022/11/13 03:17:49;;;;;;;49.35;33.47;;;;;;;4.76;100.00;102453.50;5034458;28;20474;-49
2022/11/13 03:20:14;;;;;;;46.67;31.30;;;;;;;4.74;100.00;102441.28;5034363;28;20048;-48
2022/11/13 03:22:40;;;;;;;46.85;32.03;;;;;;;4.73;100.00;102429.97;5016535;28;20103;-51
2022/11/13 03:25:06;;;;;;;45.55;33.60;;;;;;;4.80;100.00;102447.50;5034124;28;20056;-50
2022/11/13 03:27:32;;;;;;;46.85;32.10;;;;;;;4.64;100.00;102416.75;5034340;28;20033;-48
2022/11/13 03:29:57;;;;;;;50.45;32.03;;;;;;;4.80;100.00;102438.78;5034095;28;20048;-48
2022/11/13 03:32:22;;;;;;;48.88;32.70;;;;;;;4.74;100.00;102439.56;5034314;28;20052;-52
2022/11/13 03:34:48;;;;;;;44.40;32.25;;;;;;;4.76;100.00;102435.22;5034231;28;20034;-49
2022/11/13 03:37:13;;;;;;;45.58;33.17;;;;;;;4.76;100.00;102437.00;5016327;28;20184;-51
2022/11/13 03:39:38;;;;;;;44.58;31.02;;;;;;;4.77;100.00;102438.72;5033767;28;20030;-51
2022/11/13 03:42:04;;;;;;;43.95;30.70;;;;;;;4.74;100.00;102428.25;5034241;28;20572;-53
2022/11/13 03:44:29;;;;;;;43.22;30.98;;;;;;;4.39;100.00;102373.78;5033852;28;20034;-49
2022/11/13 03:46:54;;;;;;;48.22;31.58;;;;;;;4.75;100.00;102425.66;5034024;28;20049;-53
2022/11/13 03:49:20;;;;;;;47.60;32.50;;;;;;;4.69;100.00;102424.69;5015790;28;20041;-50
2022/11/13 03:51:46;;;;;;;48.20;30.77;;;;;;;4.70;100.00;102418.63;5033689;28;20088;-49
2022/11/13 03:54:12;;;;;;;47.05;31.73;;;;;;;4.75;100.00;102437.84;5033626;28;20038;-49
2022/11/13 03:56:37;;;;;;;41.65;29.98;;;;;;;4.33;100.00;102372.78;5033625;28;20037;-53
2022/11/13 03:59:02;;;;;;;40.45;29.15;;;;;;;4.73;100.00;102463.88;5033876;28;20500;-51
2022/11/13 04:01:28;;;;;;;43.05;29.52;;;;;;;4.72;100.00;102443.00;5015950;28;20037;-51
2022/11/13 04:03:53;;;;;;;44.45;30.10;;;;;;;4.45;100.00;102399.06;5015653;28;20042;-50
2022/11/13 04:06:18;;;;;;;40.70;29.58;;;;;;;4.70;100.00;102445.56;5033441;28;20123;-54
2022/11/13 04:08:44;;;;;;;45.00;29.05;;;;;;;4.70;100.00;102439.50;5033364;28;20045;-52
2022/11/13 04:11:11;;;;;;;43.35;29.95;;;;;;;4.68;100.00;102444.66;5015871;28;20033;-53
2022/11/13 04:13:36;;;;;;;40.15;28.67;;;;;;;4.67;100.00;102442.91;5033328;28;20072;-50
2022/11/13 04:16:03;;;;;;;42.38;28.02;;;;;;;4.28;100.00;102375.31;5032496;28;20046;-49
2022/11/13 04:18:28;;;;;;;46.00;29.77;;;;;;;4.25;100.00;102375.25;5033164;28;20515;-47
2022/11/13 04:21:00;;;;;;;44.72;30.15;;;;;;;4.65;100.00;102425.47;5033333;28;20146;-54
2022/11/13 04:23:26;;;;;;;43.13;29.05;;;;;;;4.54;100.00;102413.16;5015313;28;20087;-54
2022/11/13 04:25:51;;;;;;;42.90;29.70;;;;;;;4.61;100.00;102421.97;5033208;28;20034;-52
2022/11/13 04:28:16;;;;;;;44.00;30.73;;;;;;;4.59;100.00;102420.16;5032789;28;20033;-53
2022/11/13 04:30:42;;;;;;;46.20;30.65;;;;;;;4.30;100.00;102377.94;4999063;28;20029;-51
2022/11/13 04:33:07;;;;;;;42.35;29.55;;;;;;;4.39;100.00;102386.81;5033048;28;20465;-54
2022/11/13 04:35:33;;;;;;;44.50;29.85;;;;;;;4.50;100.00;102408.72;5033030;28;20068;-52
2022/11/13 04:37:58;;;;;;;44.00;29.73;;;;;;;4.56;100.00;102418.38;5015199;28;20025;-52
2022/11/13 04:40:24;;;;;;;44.30;29.42;;;;;;;4.46;100.00;102406.03;5032799;28;20083;-52
2022/11/13 04:42:49;;;;;;;43.92;29.88;;;;;;;4.51;100.00;102407.88;5032770;28;20049;-53
2022/11/13 04:45:19;;;;;;;48.40;31.00;;;;;;;4.48;100.00;102406.94;5032726;28;20465;-54
2022/11/13 04:47:45;;;;;;;51.13;30.88;;;;;;;4.47;100.00;102408.66;5032787;28;20033;-52
2022/11/13 04:50:11;;;;;;;43.30;29.42;;;;;;;4.48;100.00;102406.94;5032449;28;20029;-57
2022/11/13 04:52:36;;;;;;;39.42;28.65;;;;;;;4.48;100.00;102417.38;5032473;28;20503;-49
2022/11/13 04:55:03;;;;;;;40.63;29.05;;;;;;;4.06;100.00;102336.69;5032447;28;20112;-50
2022/11/13 04:57:28;;;;;;;39.08;29.33;;;;;;;4.46;100.00;102412.16;5015076;28;20112;-52
2022/11/13 04:59:53;;;;;;;42.72;29.67;;;;;;;4.44;100.00;102405.13;5029020;28;20831;-57
2022/11/13 05:02:19;;;;;;;39.53;28.48;;;;;;;4.42;100.00;102419.88;5013457;28;20492;-50
2022/11/13 05:04:44;;;;;;;38.22;29.35;;;;;;;4.33;100.00;102409.28;5028390;28;20041;-55
2022/11/13 05:07:10;;;;;;;37.83;27.00;;;;;;;3.98;100.00;102349.56;5017881;28;20067;-50
2022/11/13 05:09:35;;;;;;;47.20;30.17;;;;;;;4.34;100.00;102416.25;5004854;28;20035;-52
2022/11/13 05:12:01;;;;;;;47.35;30.05;;;;;;;4.29;100.00;102407.47;5011305;28;20041;-50
2022/11/13 05:14:26;;;;;;;40.53;28.80;;;;;;;4.27;100.00;102404.81;5012604;28;20117;-49
2022/11/13 05:16:51;;;;;;;43.97;28.30;;;;;;;4.24;100.00;102398.69;5012534;28;20088;-50
2022/11/13 05:19:17;;;;;;;44.95;30.48;;;;;;;4.19;100.00;102392.50;4994877;28;20096;-49
2022/11/13 05:21:42;;;;;;;41.40;29.42;;;;;;;3.90;100.00;102343.34;4994312;28;20045;-49
2022/11/13 05:24:10;;;;;;;43.53;29.75;;;;;;;4.15;100.00;102372.44;5012962;28;20056;-52
2022/11/13 05:26:37;;;;;;;43.60;30.25;;;;;;;3.93;100.00;102321.69;4994705;28;20021;-50
2022/11/13 05:29:02;;;;;;;41.42;29.30;;;;;;;3.95;100.00;102328.69;5012408;28;20057;-50
2022/11/13 05:31:28;;;;;;;45.20;31.27;;;;;;;4.00;100.00;102323.53;5012038;28;20500;-49
2022/11/13 05:33:53;;;;;;;44.60;30.17;;;;;;;3.97;100.00;102319.16;4994973;28;20033;-50
2022/11/13 05:36:19;;;;;;;41.80;29.80;;;;;;;4.28;100.00;102377.03;5012192;28;20030;-51
2022/11/13 05:38:44;;;;;;;43.95;30.80;;;;;;;3.88;100.00;102313.78;4994812;28;20477;-51
2022/11/13 05:41:12;;;;;;;45.72;29.85;;;;;;;4.18;100.00;102365.56;5012142;28;20408;-49
2022/11/13 05:43:39;;;;;;;39.15;29.88;;;;;;;3.85;100.00;102312.88;4994524;28;20053;-47
2022/11/13 05:46:10;;;;;;;46.92;30.02;;;;;;;3.95;100.00;102331.28;5012331;28;20029;-48
2022/11/13 05:48:35;;;;;;;44.45;29.02;;;;;;;3.82;100.00;102321.47;4994649;28;20045;-47
2022/11/13 05:51:06;;;;;;;40.30;30.45;;;;;;;4.05;100.00;102357.50;5012252;28;20451;-48
2022/11/13 05:53:33;;;;;;;46.03;31.17;;;;;;;3.66;100.00;102290.78;5012211;28;20069;-50
2022/11/13 05:56:03;;;;;;;41.20;29.52;;;;;;;4.01;100.00;102361.78;4994646;28;20128;-47
2022/11/13 05:58:29;;;;;;;45.33;30.87;;;;;;;3.99;100.00;102347.84;4994716;28;20037;-48
2022/11/13 06:01:06;;;;;;;42.05;29.42;;;;;;;3.53;100.00;102273.22;5012220;28;20366;-53
2022/11/13 06:03:32;;;;;;;42.45;30.63;;;;;;;3.84;100.00;102326.72;4978129;28;20037;-50
2022/11/13 06:05:58;;;;;;;40.58;30.50;;;;;;;3.83;100.00;102341.47;4994688;28;20034;-49
2022/11/13 06:08:23;;;;;;;41.05;29.48;;;;;;;3.77;100.00;102325.72;4994351;28;20127;-49
2022/11/13 06:10:48;;;;;;;42.95;29.48;;;;;;;3.83;100.00;102346.69;5011986;28;20030;-51
2022/11/13 06:13:14;;;;;;;39.47;29.08;;;;;;;3.81;100.00;102347.50;5011964;28;20029;-50
2022/11/13 06:15:39;;;;;;;42.67;28.58;;;;;;;3.71;100.00;102346.44;5011797;28;20057;-50
2022/11/13 06:18:04;;;;;;;42.03;29.52;;;;;;;3.40;100.00;102279.00;5011821;28;20516;-51
2022/11/13 06:20:30;;;;;;;44.88;30.33;;;;;;;3.73;100.00;102342.16;4994409;28;20448;-48
2022/11/13 06:22:56;;;;;;;48.53;31.00;;;;;;;3.72;100.00;102339.50;4994347;28;20113;-50
2022/11/13 06:25:22;;;;;;;49.22;30.50;;;;;;;3.64;100.00;102322.88;5011847;28;20030;-50
2022/11/13 06:27:47;;;;;;;43.70;29.65;;;;;;;3.69;100.00;102329.03;5011981;28;20041;-49
2022/11/13 06:30:13;;;;;;;41.13;29.48;;;;;;;3.70;100.00;102333.41;5011789;28;20038;-49
2022/11/13 06:32:38;;;;;;;44.60;30.73;;;;;;;3.60;100.00;102314.13;5011864;28;20064;-49
2022/11/13 06:35:04;;;;;;;44.80;31.40;;;;;;;3.28;100.00;102247.53;5011741;28;20473;-52
2022/11/13 06:37:29;;;;;;;44.75;30.05;;;;;;;3.43;100.00;102276.47;5012132;28;20069;-50
2022/11/13 06:39:54;;;;;;;43.55;29.52;;;;;;;3.39;100.00;102272.03;5015537;28;20111;-48
2022/11/13 06:42:20;;;;;;;41.63;31.15;;;;;;;3.78;100.00;102324.88;4997706;28;20501;-53
2022/11/13 06:44:45;;;;;;;43.95;31.02;;;;;;;3.42;100.00;102259.97;5015264;28;20053;-48
2022/11/13 06:47:10;;;;;;;43.10;30.45;;;;;;;3.46;100.00;102268.72;4997529;28;20045;-51
2022/11/13 06:49:36;;;;;;;45.40;32.65;;;;;;;3.94;100.00;102336.47;5015199;28;20049;-52
2022/11/13 06:52:01;;;;;;;45.10;29.88;;;;;;;4.01;100.00;102329.63;5015272;28;20037;-52
2022/11/13 06:54:26;;;;;;;45.63;31.35;;;;;;;3.73;100.00;102282.25;5015068;28;20049;-49
2022/11/13 06:56:51;;;;;;;45.13;31.17;;;;;;;4.11;100.00;102326.34;5015170;28;20509;-53
2022/11/13 06:59:17;;;;;;;41.13;29.90;;;;;;;3.41;100.00;102208.75;5015006;28;20100;-53
2022/11/13 07:01:42;;;;;;;41.65;30.13;;;;;;;4.13;100.00;102335.94;5014839;28;20030;-50
2022/11/13 07:04:10;;;;;;;42.13;28.75;;;;;;;4.00;100.00;102309.66;5014737;28;20026;-52
2022/11/13 07:06:36;;;;;;;38.20;30.73;;;;;;;4.06;100.00;102320.19;4997452;28;20088;-50
2022/11/13 07:09:01;;;;;;;38.97;29.15;;;;;;;4.13;100.00;102319.44;5014644;28;20045;-49
2022/11/13 07:11:26;;;;;;;40.30;30.27;;;;;;;3.76;100.00;102252.78;5014692;28;20037;-53
2022/11/13 07:13:51;;;;;;;43.88;30.83;;;;;;;4.20;100.00;102318.69;5014751;28;20030;-52
2022/11/13 07:16:17;;;;;;;45.17;31.15;;;;;;;3.88;100.00;102263.44;5014526;28;20046;-51
2022/11/13 07:18:43;;;;;;;44.50;31.70;;;;;;;4.26;100.00;102329.22;5014528;28;20473;-50
2022/11/13 07:21:10;;;;;;;45.42;32.55;;;;;;;4.08;100.00;102285.50;5014530;28;20033;-49
2022/11/13 07:23:41;;;;;;;43.88;31.58;;;;;;;4.32;100.00;102316.31;4996094;28;20397;-48
2022/11/13 07:26:07;;;;;;;;;;;;;;;4.40;100.00;102317.28;4981847;28;20500;-49
2022/11/13 07:28:33;;;;;;;42.58;31.02;;;;;;;4.45;100.00;102307.81;5013957;28;19970;-48
2022/11/13 07:30:58;;;;;;;42.15;29.42;;;;;;;4.40;100.00;102292.09;5014241;28;20117;-49
2022/11/13 07:33:24;;;;;;;44.33;31.60;;;;;;;4.59;100.00;102301.06;5014263;28;20045;-51
2022/11/13 07:35:53;;;;;;;39.08;30.27;;;;;;;4.68;100.00;102296.00;4996363;28;20026;-51
2022/11/13 07:38:18;;;;;;;40.97;29.95;;;;;;;4.69;100.00;102289.94;5014079;28;20034;-49
2022/11/13 07:40:43;;;;;;;41.53;30.23;;;;;;;4.49;100.00;102224.44;5013815;28;20060;-50
2022/11/13 07:43:09;;;;;;;43.38;29.98;;;;;;;4.99;100.00;102306.00;4996044;28;20050;-51
2022/11/13 07:45:34;;;;;;;38.75;28.27;;;;;;;5.00;100.00;102292.09;5013772;28;20497;-49
2022/11/13 07:48:00;;;;;;;38.67;27.38;;;;;;;5.16;100.00;102301.03;5013668;28;20034;-52
2022/11/13 07:50:31;;;;;;;38.88;29.52;;;;;;;5.24;100.00;102304.59;4995943;28;20117;-49
2022/11/13 07:53:07;;;;;;;41.72;28.75;;;;;;;5.05;100.00;102261.72;4996356;28;20034;-50
2022/11/13 07:55:33;;;;;;;35.58;27.88;;;;;;;5.31;100.00;102309.03;5013588;28;20058;-48
2022/11/13 07:57:59;;;;;;;54.67;36.75;;;;;;;5.26;100.00;102292.44;5013707;28;20092;-49
2022/11/13 08:00:26;;;;;;;45.15;31.35;;;;;;;4.96;100.00;102238.13;5013839;28;20033;-47
2022/11/13 08:02:51;;;;;;;38.78;29.17;;;;;;;5.28;100.00;102282.91;5014086;28;20120;-49
2022/11/13 08:05:17;;;;;;;36.83;26.42;;;;;;;5.01;100.00;102233.84;4996015;28;20121;-52
2022/11/13 08:07:42;;;;;;;36.10;26.88;;;;;;;5.43;100.00;102310.94;5013468;28;20046;-52
2022/11/13 08:10:08;;;;;;;55.72;36.78;;;;;;;4.55;100.00;102164.53;4995621;28;20096;-49
2022/11/13 08:12:33;;;;;;;611.97;413.05;;;;;;;5.49;100.00;102300.53;5013285;28;20038;-55
2022/11/13 08:14:59;;;;;;;281.20;170.52;;;;;;;5.20;100.00;102236.66;5013252;28;20040;-54
2022/11/13 08:17:24;;;;;;;75.10;48.85;;;;;;;5.29;100.00;102250.72;5013294;28;20125;-51
2022/11/13 08:19:49;;;;;;;49.67;35.80;;;;;;;5.67;100.00;102305.97;5013375;28;20036;-50
2022/11/13 08:22:15;;;;;;;40.25;32.65;;;;;;;5.71;100.00;102314.72;5013679;28;20362;-52
2022/11/13 08:24:40;;;;;;;40.50;34.00;;;;;;;5.74;100.00;102291.25;5012989;28;20038;-50
2022/11/13 08:27:06;;;;;;;30.00;23.42;;;;;;;5.50;100.00;102237.91;5012800;28;20037;-53
2022/11/13 08:29:31;;;;;;;28.30;24.25;;;;;;;5.96;100.00;102299.34;4995652;28;20041;-52
2022/11/13 08:31:57;;;;;;;26.10;22.20;;;;;;;5.69;100.00;102242.44;5013161;28;20038;-53
2022/11/13 08:34:22;;;;;;;29.65;23.10;;;;;;;5.76;100.00;102230.31;5013171;28;20065;-51
2022/11/13 08:36:47;;;;;;;25.48;19.67;;;;;;;6.12;100.00;102279.47;5013177;28;20038;-51
2022/11/13 08:39:13;;;;;;;24.83;18.98;;;;;;;5.86;100.00;102216.50;4995544;28;20058;-50
2022/11/13 08:41:38;;;;;;;23.95;19.70;;;;;;;5.96;100.00;102223.56;4995036;28;20080;-55
2022/11/13 08:44:04;;;;;;;22.13;19.13;;;;;;;6.37;100.00;102291.88;5012556;28;20079;-50
2022/11/13 08:46:29;;;;;;;22.48;18.20;;;;;;;6.41;100.00;102295.38;5012416;28;20048;-53
2022/11/13 08:48:54;;;;;;;20.10;17.90;;;;;;;6.45;100.00;102295.41;5012497;28;20124;-50
2022/11/13 08:51:20;;;;;;;20.88;17.50;;;;;;;6.08;100.00;102213.19;5012761;28;20061;-51
2022/11/13 08:53:45;;;;;;;21.33;16.02;;;;;;;6.35;100.00;102245.66;5012252;28;20069;-53
2022/11/13 08:56:11;;;;;;;18.88;16.60;;;;;;;6.56;100.00;102278.06;5012751;28;20041;-52
2022/11/13 08:58:36;;;;;;;19.80;15.45;;;;;;;6.27;100.00;102209.00;5012326;28;20036;-50
2022/11/13 09:01:03;;;;;;;21.05;15.13;;;;;;;6.65;100.00;102272.91;4994614;28;20033;-51
2022/11/13 09:03:29;;;;;;;18.45;15.50;;;;;;;6.65;100.00;102258.94;5012822;28;20381;-51
2022/11/13 09:05:54;;;;;;;17.30;14.18;;;;;;;6.58;100.00;102241.44;5012356;28;20033;-56
2022/11/13 09:08:19;;;;;;;18.13;14.10;;;;;;;6.32;100.00;102188.97;5012524;28;20045;-51
2022/11/13 09:10:45;;;;;;;17.52;14.88;;;;;;;6.68;100.00;102253.72;4995193;28;20073;-48
2022/11/13 09:13:10;;;;;;;16.98;14.30;;;;;;;6.40;100.00;102199.47;5012246;28;20429;-50
2022/11/13 09:15:37;;;;;;;16.48;14.15;;;;;;;6.74;100.00;102240.69;5012247;28;20038;-53
2022/11/13 09:18:03;;;;;;;15.38;13.25;;;;;;;6.80;100.00;102246.81;5012118;28;20038;-52
2022/11/13 09:20:29;;;;;;;15.32;13.73;;;;;;;6.85;100.00;102239.00;5012059;28;20030;-53
2022/11/13 09:23:03;;;;;;;14.15;12.63;;;;;;;6.65;100.00;102204.00;5011686;28;20128;-51
2022/11/13 09:25:29;;;;;;;13.15;11.85;;;;;;;6.92;100.00;102238.13;4994338;28;20122;-53
2022/11/13 09:27:57;;;;;;;12.38;11.05;;;;;;;6.99;100.00;102239.94;5012728;28;20366;-52
2022/11/13 09:30:23;;;;;;;12.38;10.02;;;;;;;6.71;100.00;102178.72;5012471;28;20069;-49
2022/11/13 09:32:56;;;;;;;13.38;10.88;;;;;;;7.10;100.00;102233.00;4994946;28;20066;-50
2022/11/13 09:35:33;;;;;;;11.40;10.18;;;;;;;7.16;100.00;102240.00;5012245;28;20058;-52
2022/11/13 09:38:06;;;;;;;11.55;10.40;;;;;;;7.23;100.00;102219.09;5012261;28;20065;-52
2022/11/13 09:40:41;;;;;;;11.90;10.70;;;;;;;7.19;100.00;102206.84;5012439;28;20049;-51
2022/11/13 09:43:32;;;;;;;12.40;9.65;;;;;;;7.02;100.00;102174.50;5012011;28;20054;-52
2022/11/13 09:46:03;;;;;;;12.68;10.80;;;;;;;7.13;100.00;102175.41;5011050;28;20069;-48
2022/11/13 09:48:29;;;;;;;12.85;10.05;;;;;;;7.44;100.00;102226.13;5011759;28;20040;-51
2022/11/13 09:50:55;;;;;;;11.05;9.98;;;;;;;7.49;100.00;102216.53;5012306;28;20109;-51
2022/11/13 09:53:21;;;;;;;12.95;9.38;;;;;;;7.52;100.00;102220.91;4978305;28;20073;-50
2022/11/13 09:56:13;;;;;;;11.43;10.23;;;;;;;7.63;100.00;102213.91;5012187;28;20461;-50
2022/11/13 09:58:46;;;;;;;11.07;9.55;;;;;;;7.68;100.00;102220.03;4978321;28;20040;-48
2022/11/13 10:01:18;;;;;;;11.88;9.82;;;;;;;7.62;100.00;102206.91;5010810;28;20045;-50
2022/11/13 10:03:46;;;;;;;10.93;9.75;;;;;;;7.47;100.00;102171.13;4994741;28;20459;-51
2022/11/13 10:06:24;;;;;;;10.55;9.45;;;;;;;7.74;100.00;102207.81;4994701;28;20034;-47
2022/11/13 10:08:54;;;;;;;10.50;9.27;;;;;;;7.88;100.00;102218.34;5010741;28;20037;-48
2022/11/13 10:12:01;;;;;;;11.57;10.48;;;;;;;7.90;100.00;102214.84;5012034;28;20025;-48
2022/11/13 10:14:33;;;;;;;11.93;10.65;;;;;;;7.98;100.00;102232.31;5010219;28;20072;-49
2022/11/13 10:17:21;;;;;;;14.13;10.75;;;;;;;8.00;100.00;102223.56;5015708;28;20040;-47
2022/11/13 10:19:57;;;;;;;11.35;9.95;;;;;;;7.85;100.00;102164.13;5015568;28;20065;-49
2022/11/13 10:22:49;;;;;;;9.55;8.65;;;;;;;8.31;100.00;102209.59;5014487;28;20034;-48
2022/11/13 10:25:18;;;;;;;10.25;9.25;;;;;;;8.41;100.00;102218.31;5015573;28;20042;-48
2022/11/13 10:27:57;;;;;;;10.27;9.15;;;;;;;8.47;100.00;102211.31;5015612;28;20057;-47
2022/11/13 10:30:23;;;;;;;9.57;8.30;;;;;;;8.54;100.00;102203.44;4997662;28;20125;-48
2022/11/13 10:32:49;;;;;;;11.20;8.57;;;;;;;8.44;100.00;102179.81;5015742;28;20125;-51
2022/11/13 10:35:26;;;;;;;9.82;8.45;;;;;;;8.67;100.00;102213.88;5015299;28;20033;-47
2022/11/13 10:38:18;;;;;;;9.70;8.32;;;;;;;8.70;100.00;102218.28;5015506;28;20109;-48
2022/11/13 10:40:44;;;;;;;10.68;7.88;;;;;;;8.39;100.00;102141.38;5013960;28;20444;-49
2022/11/13 10:43:23;;;;;;;8.50;7.70;;;;;;;8.71;100.00;102199.00;5015074;28;20050;-47
2022/11/13 10:46:03;;;;;;;9.13;8.18;;;;;;;8.83;100.00;102215.59;5015169;28;20485;-48
2022/11/13 10:48:31;;;;;;;9.63;8.70;;;;;;;8.63;100.00;102167.53;5015183;28;20029;-47
2022/11/13 10:51:16;;;;;;;9.48;8.57;;;;;;;8.89;100.00;102194.56;5014892;28;20585;-52
2022/11/13 10:53:41;;;;;;;9.32;8.27;;;;;;;8.86;100.00;102185.81;5012843;28;20061;-47
2022/11/13 10:56:22;;;;;;;11.02;8.25;;;;;;;8.56;100.00;102130.81;4997780;28;20452;-51
2022/11/13 10:59:17;;;;;;;9.20;7.95;;;;;;;8.97;100.00;102182.28;4997501;28;20036;-49
2022/11/13 11:01:45;;;;;;;11.32;8.75;;;;;;;9.08;100.00;102191.88;4997576;28;20393;-50
2022/11/13 11:04:20;;;;;;;9.00;7.90;;;;;;;9.08;100.00;102179.59;4997292;28;20045;-48
2022/11/13 11:06:46;;;;;;;10.77;7.97;;;;;;;9.12;100.00;102180.44;5013557;28;20037;-50
2022/11/13 11:09:32;;;;;;;8.65;7.55;;;;;;;9.20;100.00;102174.28;5014586;28;20045;-47